Fairhaven, Washington
Current Conditions -  °F | °C
As of 10:53 PM on Monday 20 Oct 2014 (Local Time) from KBLI Reporting Station
Overcast Overcast  
Wind Chill: 57°   Ceiling: 2100
Heat Index: 57°   Visibility: 10mi
Dew Point: 51°   Wind: 10mph
Humidity: 81%   Direction: 150°SSE
Pressure: 29.75"   Gusts: NA
Location:  48.7531°N, 122.502°W
Report Text: KBLI 210553Z AUTO 15009KT 10SM OVC021 14/11 A2975 RMK AO2 SLP081 60042 T01390106 10161 20133 53007
Loading
Personal Weather Stations






























Interactive Weather Map
Tropical Storm Tracking
New forecast layout! Learn more

10-Day Weather Forecast

Advertisements
Track Severe Weather on mobile